createdAt,value
2023-03-20T00:02:01.919Z,6.10
2023-03-20T00:04:29.550Z,4.50
2023-03-20T00:06:56.487Z,5.23
2023-03-20T00:09:25.607Z,5.13
2023-03-20T00:11:55.592Z,4.33
2023-03-20T00:14:24.766Z,5.13
2023-03-20T00:16:52.713Z,5.27
2023-03-20T00:19:23.350Z,5.13
2023-03-20T00:21:51.507Z,4.60
2023-03-20T00:24:18.639Z,4.80
2023-03-20T00:26:47.325Z,4.50
2023-03-20T00:29:26.193Z,4.80
2023-03-20T00:31:54.866Z,4.50
2023-03-20T00:34:23.886Z,5.30
2023-03-20T00:36:51.428Z,4.57
2023-03-20T00:39:18.289Z,4.33
2023-03-20T00:41:56.964Z,4.57
2023-03-20T00:44:44.468Z,3.80
2023-03-20T00:47:20.628Z,5.50
2023-03-20T00:49:50.030Z,5.07
2023-03-20T00:52:19.693Z,5.83
2023-03-20T00:54:46.712Z,5.70
2023-03-20T00:57:20.592Z,5.50
2023-03-20T00:59:53.081Z,5.77
2023-03-20T01:02:21.901Z,5.03
2023-03-20T01:04:48.899Z,5.33
2023-03-20T01:07:16.425Z,4.43
2023-03-20T01:09:43.244Z,4.37
2023-03-20T01:12:14.364Z,4.80
2023-03-20T01:14:43.187Z,4.20
2023-03-20T01:17:18.896Z,4.50
2023-03-20T01:19:45.650Z,3.83
2023-03-20T01:22:14.132Z,4.17
2023-03-20T01:24:41.266Z,4.23
2023-03-20T01:27:16.451Z,4.97
2023-03-20T01:29:43.800Z,3.93
2023-03-20T01:32:16.690Z,3.60
2023-03-20T01:34:43.528Z,4.10
2023-03-20T01:37:14.223Z,3.37
2023-03-20T01:39:41.026Z,4.40
2023-03-20T01:42:08.494Z,3.13
2023-03-20T01:44:36.776Z,3.47
2023-03-20T01:47:16.191Z,4.07
2023-03-20T01:50:22.336Z,3.20
2023-03-20T01:52:53.835Z,3.30
2023-03-20T01:55:21.572Z,4.70
2023-03-20T01:57:49.046Z,3.47
2023-03-20T02:00:16.778Z,3.70
2023-03-20T02:02:47.193Z,3.17
2023-03-20T02:05:17.599Z,3.60
2023-03-20T02:07:51.126Z,4.80
2023-03-20T02:10:19.474Z,5.07
2023-03-20T02:12:47.458Z,4.60
2023-03-20T02:15:17.021Z,6.63
2023-03-20T02:17:44.767Z,7.43
2023-03-20T02:20:36.299Z,5.60
2023-03-20T02:23:27.959Z,6.10
2023-03-20T02:26:00.583Z,6.13
2023-03-20T02:28:52.397Z,6.00
2023-03-20T02:31:28.414Z,5.67
2023-03-20T02:34:22.875Z,6.10
2023-03-20T02:37:19.754Z,6.07
2023-03-20T02:39:52.534Z,5.40
2023-03-20T02:42:56.513Z,6.93
2023-03-20T02:45:28.652Z,6.00
2023-03-20T02:48:24.241Z,6.00
2023-03-20T02:51:04.558Z,6.30
2023-03-20T02:53:39.048Z,5.77
2023-03-20T02:56:06.679Z,5.27
2023-03-20T02:58:46.220Z,6.20
2023-03-20T03:01:19.936Z,7.20
2023-03-20T03:03:56.512Z,6.60
2023-03-20T03:06:36.449Z,6.90
2023-03-20T03:09:18.740Z,6.33
2023-03-20T03:11:50.585Z,6.67
2023-03-20T03:14:27.662Z,6.20
2023-03-20T03:16:55.708Z,6.47
2023-03-20T03:19:26.320Z,5.50
2023-03-20T03:21:53.081Z,6.47
2023-03-20T03:24:39.715Z,6.10
2023-03-20T03:27:25.784Z,6.67
2023-03-20T03:29:57.252Z,5.70
2023-03-20T03:32:31.999Z,6.77
2023-03-20T03:35:00.858Z,6.00
2023-03-20T03:37:47.881Z,7.50
2023-03-20T03:40:39.590Z,7.17
2023-03-20T03:43:19.835Z,6.93
2023-03-20T03:45:52.194Z,7.10
2023-03-20T03:48:30.425Z,6.60
2023-03-20T03:51:01.684Z,6.00
2023-03-20T03:53:34.701Z,6.30
2023-03-20T03:56:07.023Z,6.43
2023-03-20T03:58:44.035Z,7.10
2023-03-20T04:01:12.541Z,6.70
2023-03-20T04:03:42.463Z,5.70
2023-03-20T04:06:12.880Z,5.77
2023-03-20T04:08:43.390Z,6.80
2023-03-20T04:11:16.575Z,6.83
2023-03-20T04:13:44.065Z,6.00
2023-03-20T04:16:14.278Z,6.20
2023-03-20T04:18:41.593Z,7.00
2023-03-20T04:21:08.884Z,7.20
2023-03-20T04:23:36.097Z,7.37
2023-03-20T04:26:03.656Z,6.50
2023-03-20T04:28:30.608Z,5.70
2023-03-20T04:30:59.609Z,6.63
2023-03-20T04:33:27.413Z,7.90
2023-03-20T04:35:54.765Z,7.10
2023-03-20T04:38:23.108Z,6.43
2023-03-20T04:40:50.541Z,7.23
2023-03-20T04:43:17.569Z,4.47
2023-03-20T04:45:44.419Z,3.60
2023-03-20T04:48:11.285Z,4.10
2023-03-20T04:50:38.152Z,4.20
2023-03-20T04:53:05.838Z,3.20
2023-03-20T04:55:32.817Z,3.60
2023-03-20T04:57:59.573Z,3.60
2023-03-20T05:00:26.349Z,3.90
2023-03-20T05:02:53.120Z,3.43
2023-03-20T05:05:19.854Z,3.50
2023-03-20T05:07:46.658Z,3.27
2023-03-20T05:10:13.637Z,4.43
2023-03-20T05:12:40.383Z,4.77
2023-03-20T05:15:07.744Z,4.63
2023-03-20T05:17:34.446Z,3.07
2023-03-20T05:20:01.172Z,4.70
2023-03-20T05:22:27.863Z,4.30
2023-03-20T05:24:54.671Z,4.00
2023-03-20T05:27:21.385Z,3.27
2023-03-20T05:29:48.057Z,3.07
2023-03-20T05:32:14.815Z,2.90
2023-03-20T05:34:41.506Z,2.53
2023-03-20T05:37:08.298Z,2.60
2023-03-20T05:39:34.984Z,2.77
2023-03-20T05:42:02.056Z,4.70
2023-03-20T05:44:28.796Z,3.47
2023-03-20T05:46:55.567Z,3.80
2023-03-20T05:49:22.299Z,3.13
2023-03-20T05:51:49.079Z,2.70
2023-03-20T05:54:16.528Z,3.07
2023-03-20T05:56:43.431Z,2.87
2023-03-20T05:59:12.738Z,2.80
2023-03-20T06:01:39.471Z,2.83
2023-03-20T06:04:06.478Z,2.67
2023-03-20T06:06:35.469Z,2.30
2023-03-20T06:09:02.227Z,3.07
2023-03-20T06:11:28.949Z,2.30
2023-03-20T06:13:58.132Z,2.87
2023-03-20T06:16:25.289Z,2.53
2023-03-20T06:18:52.044Z,2.23
2023-03-20T06:21:18.791Z,3.03
2023-03-20T06:23:45.559Z,2.57
2023-03-20T06:26:12.365Z,2.20
2023-03-20T06:28:39.129Z,2.17
2023-03-20T06:31:06.275Z,2.30
2023-03-20T06:33:33.038Z,2.30
2023-03-20T06:35:59.843Z,1.60
2023-03-20T06:38:26.593Z,1.60
2023-03-20T06:40:53.285Z,1.77
2023-03-20T06:43:20.195Z,1.97
2023-03-20T06:45:47.072Z,2.00
2023-03-20T06:48:14.040Z,2.03
2023-03-20T06:50:40.795Z,1.70
2023-03-20T06:53:07.587Z,1.87
2023-03-20T06:55:34.485Z,1.80
2023-03-20T06:58:01.351Z,2.00
2023-03-20T07:00:28.166Z,1.70
2023-03-20T07:02:55.337Z,1.90
2023-03-20T07:05:22.836Z,1.50
2023-03-20T07:07:49.733Z,2.20
2023-03-20T07:10:17.311Z,2.40
2023-03-20T07:12:44.674Z,2.20
2023-03-20T07:15:11.570Z,1.90
2023-03-20T07:17:38.352Z,1.77
2023-03-20T07:20:05.610Z,2.30
2023-03-20T07:22:32.476Z,1.97
2023-03-20T07:24:59.267Z,1.43
2023-03-20T07:27:26.285Z,1.63
2023-03-20T07:29:53.150Z,1.87
2023-03-20T07:32:20.850Z,2.03
2023-03-20T07:34:48.395Z,1.87
2023-03-20T07:37:15.548Z,1.60
2023-03-20T07:39:42.327Z,3.13
2023-03-20T07:42:09.169Z,2.60
2023-03-20T07:44:35.871Z,2.50
2023-03-20T07:47:02.784Z,1.53
2023-03-20T07:49:29.610Z,1.50
2023-03-20T07:51:56.961Z,1.37
2023-03-20T07:54:23.939Z,1.37
2023-03-20T07:56:50.994Z,1.60
2023-03-20T07:59:17.897Z,1.23
2023-03-20T08:01:45.040Z,2.13
2023-03-20T08:04:11.824Z,1.60
2023-03-20T08:06:41.594Z,1.93
2023-03-20T08:09:08.530Z,1.70
2023-03-20T08:11:35.447Z,1.10
2023-03-20T08:14:02.219Z,1.33
2023-03-20T08:16:29.100Z,1.30
2023-03-20T08:19:01.131Z,1.50
2023-03-20T08:21:32.036Z,1.23
2023-03-20T08:23:59.136Z,1.60
2023-03-20T08:26:26.051Z,1.80
2023-03-20T08:28:52.892Z,1.30
2023-03-20T08:31:20.032Z,1.50
2023-03-20T08:33:47.525Z,1.00
2023-03-20T08:36:15.933Z,1.93
2023-03-20T08:38:43.369Z,1.70
2023-03-20T08:41:10.352Z,1.40
2023-03-20T08:43:37.127Z,1.20
2023-03-20T08:46:04.405Z,1.57
2023-03-20T08:48:32.686Z,1.20
2023-03-20T08:50:59.799Z,1.30
2023-03-20T08:53:27.239Z,1.53
2023-03-20T08:55:54.552Z,1.30
2023-03-20T08:58:22.162Z,1.80
2023-03-20T09:00:49.227Z,1.90
2023-03-20T09:03:18.503Z,1.27
2023-03-20T09:05:46.873Z,1.53
2023-03-20T09:08:14.179Z,1.40
2023-03-20T09:10:41.291Z,1.47
2023-03-20T09:13:25.857Z,1.40
2023-03-20T09:15:53.823Z,1.27
2023-03-20T09:18:21.416Z,1.30
2023-03-20T09:20:48.823Z,1.60
2023-03-20T09:23:15.760Z,1.33
2023-03-20T09:25:42.684Z,1.40
2023-03-20T09:28:09.575Z,1.90
2023-03-20T09:30:37.065Z,1.50
2023-03-20T09:33:03.979Z,1.10
2023-03-20T09:35:31.339Z,1.40
2023-03-20T09:37:58.128Z,1.50
2023-03-20T09:40:29.784Z,1.43
2023-03-20T09:43:07.077Z,1.40
2023-03-20T09:46:13.166Z,1.10
2023-03-20T09:48:58.011Z,1.37
2023-03-20T09:51:46.647Z,1.50
2023-03-20T09:54:52.747Z,1.20
2023-03-20T09:57:28.451Z,1.70
2023-03-20T09:59:59.536Z,1.30
2023-03-20T10:02:43.748Z,1.40
2023-03-20T10:05:28.242Z,1.33
2023-03-20T10:07:58.042Z,1.20
2023-03-20T10:10:48.012Z,1.30
2023-03-20T10:13:17.481Z,1.20
2023-03-20T10:15:54.140Z,1.10
2023-03-20T10:18:26.502Z,1.00
2023-03-20T10:21:05.667Z,1.00
2023-03-20T10:23:40.703Z,1.10
2023-03-20T10:26:16.118Z,1.23
2023-03-20T10:28:57.414Z,1.03
2023-03-20T10:31:39.881Z,1.20
2023-03-20T10:34:30.680Z,1.23
2023-03-20T10:37:22.111Z,1.10
2023-03-20T10:40:26.734Z,1.00
2023-03-20T10:43:16.726Z,1.10
2023-03-20T10:45:59.099Z,1.17
2023-03-20T10:48:35.071Z,1.13
2023-03-20T10:51:03.813Z,1.27
2023-03-20T10:53:32.539Z,1.10
2023-03-20T10:56:16.396Z,1.27
2023-03-20T10:58:46.986Z,1.27
2023-03-20T11:01:14.496Z,1.20
2023-03-20T11:03:41.398Z,1.10
2023-03-20T11:06:21.846Z,1.13
2023-03-20T11:08:52.114Z,1.50
2023-03-20T11:11:28.071Z,1.30
2023-03-20T11:13:55.482Z,1.10
2023-03-20T11:16:31.784Z,1.30
2023-03-20T11:19:06.964Z,1.00
2023-03-20T11:21:39.016Z,1.10
2023-03-20T11:24:06.832Z,0.90
2023-03-20T11:26:38.231Z,1.10
2023-03-20T11:29:26.493Z,1.07
2023-03-20T11:31:53.553Z,1.10
2023-03-20T11:34:27.796Z,1.10
2023-03-20T11:37:10.526Z,1.10
2023-03-20T11:39:39.952Z,0.90
2023-03-20T11:42:25.741Z,0.90
2023-03-20T11:45:01.658Z,1.50
2023-03-20T11:47:32.606Z,1.27
2023-03-20T11:50:02.138Z,1.07
2023-03-20T11:52:40.163Z,1.20
2023-03-20T11:55:36.342Z,1.10
2023-03-20T11:58:08.084Z,1.00
2023-03-20T12:00:40.479Z,1.37
2023-03-20T12:03:50.365Z,1.50
2023-03-20T12:06:22.925Z,1.07
2023-03-20T12:09:25.445Z,1.10
2023-03-20T12:12:23.413Z,0.90
2023-03-20T12:15:14.968Z,0.90
2023-03-20T12:17:50.870Z,1.00
2023-03-20T12:20:43.726Z,1.20
2023-03-20T12:23:11.047Z,1.07
2023-03-20T12:25:43.135Z,1.10
2023-03-20T12:28:28.165Z,1.00
2023-03-20T12:31:22.622Z,0.90
2023-03-20T12:33:56.918Z,0.83
2023-03-20T12:36:39.143Z,1.00
2023-03-20T12:39:11.657Z,1.20
2023-03-20T12:42:00.834Z,1.20
2023-03-20T12:44:55.832Z,1.20
2023-03-20T12:47:40.578Z,1.10
2023-03-20T12:50:18.301Z,0.90
2023-03-20T12:52:53.899Z,0.83
2023-03-20T12:55:51.690Z,1.00
2023-03-20T12:58:41.050Z,1.10
2023-03-20T13:01:23.469Z,1.03
2023-03-20T13:04:06.232Z,1.00
2023-03-20T13:06:50.856Z,1.00
2023-03-20T13:09:44.697Z,1.20
2023-03-20T13:12:26.481Z,1.57
2023-03-20T13:15:14.879Z,1.30
2023-03-20T13:17:56.823Z,1.30
2023-03-20T13:20:33.633Z,1.03
2023-03-20T13:23:20.100Z,0.90
2023-03-20T13:26:26.771Z,1.20
2023-03-20T13:29:15.922Z,1.07
2023-03-20T13:32:08.565Z,2.03
2023-03-20T13:35:07.838Z,1.10
2023-03-20T13:37:41.802Z,1.30
2023-03-20T13:40:22.206Z,1.10
2023-03-20T13:42:57.728Z,1.00
2023-03-20T13:45:32.057Z,1.00
2023-03-20T13:48:03.893Z,1.60
2023-03-20T13:50:51.931Z,1.20
2023-03-20T13:53:24.837Z,1.20
2023-03-20T13:56:18.837Z,1.30
2023-03-20T13:59:05.782Z,1.00
2023-03-20T14:01:32.568Z,1.10
2023-03-20T14:04:00.737Z,1.23
2023-03-20T14:06:27.988Z,1.17
2023-03-20T14:08:54.848Z,1.13
2023-03-20T14:11:21.539Z,0.90
2023-03-20T14:13:55.187Z,1.20
2023-03-20T14:16:22.804Z,1.90
2023-03-20T14:19:04.325Z,1.10
2023-03-20T14:21:31.156Z,0.90
2023-03-20T14:24:03.134Z,1.00
2023-03-20T14:26:38.459Z,1.00
2023-03-20T14:29:11.249Z,1.10
2023-03-20T14:31:45.242Z,1.10
2023-03-20T14:34:12.165Z,1.30
2023-03-20T14:37:00.669Z,1.27
2023-03-20T14:39:30.205Z,1.27
2023-03-20T14:42:24.938Z,1.70
2023-03-20T14:45:06.558Z,1.53
2023-03-20T14:47:53.460Z,1.20
2023-03-20T14:50:27.012Z,1.20
2023-03-20T14:53:05.716Z,1.23
2023-03-20T14:55:49.218Z,1.20
2023-03-20T14:58:37.788Z,1.30
2023-03-20T15:01:07.197Z,1.33
2023-03-20T15:03:34.584Z,1.73
2023-03-20T15:06:06.040Z,1.70
2023-03-20T15:08:36.260Z,2.03
2023-03-20T15:11:11.945Z,1.77
2023-03-20T15:13:41.032Z,1.90
2023-03-20T15:16:09.482Z,2.00
2023-03-20T15:18:40.641Z,1.77
2023-03-20T15:21:16.549Z,2.07
2023-03-20T15:23:47.571Z,1.47
2023-03-20T15:26:16.036Z,1.50
2023-03-20T15:28:44.955Z,1.30
2023-03-20T15:31:35.977Z,1.30
2023-03-20T15:34:07.203Z,1.30
2023-03-20T15:36:37.085Z,1.40
2023-03-20T15:39:05.908Z,1.50
2023-03-20T15:41:35.277Z,1.20
2023-03-20T15:44:15.981Z,2.20
2023-03-20T15:46:59.610Z,1.90
2023-03-20T15:49:27.721Z,1.60
2023-03-20T15:51:58.742Z,1.67
2023-03-20T15:54:26.060Z,1.40
2023-03-20T15:56:56.198Z,1.73
2023-03-20T15:59:27.307Z,2.03
2023-03-20T16:01:58.003Z,1.57
2023-03-20T16:04:26.161Z,1.80
2023-03-20T16:06:59.092Z,1.50
2023-03-20T16:09:27.016Z,1.70
2023-03-20T16:12:13.752Z,1.80
2023-03-20T16:14:41.121Z,2.67
2023-03-20T16:17:08.018Z,1.73
2023-03-20T16:19:34.793Z,1.60
2023-03-20T16:22:17.935Z,2.17
2023-03-20T16:24:47.700Z,2.20
2023-03-20T16:27:24.192Z,1.87
2023-03-20T16:29:52.701Z,2.00
2023-03-20T16:32:40.374Z,1.30
2023-03-20T16:35:19.243Z,1.80
2023-03-20T16:38:29.232Z,1.80
2023-03-20T16:41:14.162Z,1.70
2023-03-20T16:43:41.228Z,1.70
2023-03-20T16:46:08.262Z,1.67
2023-03-20T16:48:39.255Z,7.00
2023-03-20T16:51:23.055Z,1.80
2023-03-20T16:53:53.880Z,2.33
2023-03-20T16:56:33.671Z,2.20
2023-03-20T16:59:08.355Z,1.53
2023-03-20T17:01:35.377Z,1.90
2023-03-20T17:04:21.008Z,1.70
2023-03-20T17:06:55.364Z,1.80
2023-03-20T17:09:29.254Z,1.60
2023-03-20T17:12:04.593Z,1.80
2023-03-20T17:14:31.566Z,1.87
2023-03-20T17:17:00.168Z,1.67
2023-03-20T17:19:26.917Z,1.90
2023-03-20T17:21:53.881Z,2.47
2023-03-20T17:24:20.913Z,2.73
2023-03-20T17:26:53.863Z,4.87
2023-03-20T17:29:20.762Z,2.77
2023-03-20T17:31:47.504Z,1.57
2023-03-20T17:34:14.993Z,2.30
2023-03-20T17:36:42.030Z,1.93
2023-03-20T17:39:19.299Z,2.20
2023-03-20T17:41:46.730Z,2.30
2023-03-20T17:44:13.682Z,1.83
2023-03-20T17:46:56.658Z,1.53
2023-03-20T17:49:27.401Z,1.77
2023-03-20T17:51:55.361Z,2.00
2023-03-20T17:54:22.170Z,2.67
2023-03-20T17:56:48.965Z,2.90
2023-03-20T17:59:15.939Z,1.90
2023-03-20T18:01:42.881Z,1.70
2023-03-20T18:04:09.647Z,1.53
2023-03-20T18:06:36.989Z,1.60
2023-03-20T18:09:04.212Z,1.60
2023-03-20T18:11:31.174Z,2.13
2023-03-20T18:13:57.963Z,1.30
2023-03-20T18:16:26.500Z,1.50
2023-03-20T18:18:54.221Z,1.53
2023-03-20T18:21:21.136Z,1.50
2023-03-20T18:23:47.950Z,1.27
2023-03-20T18:26:20.533Z,1.37
2023-03-20T18:28:48.464Z,1.40
2023-03-20T18:31:18.962Z,2.03
2023-03-20T18:33:51.141Z,2.00
2023-03-20T18:36:20.536Z,1.63
2023-03-20T18:38:48.018Z,1.33
2023-03-20T18:41:15.441Z,1.90
2023-03-20T18:43:42.380Z,1.80
2023-03-20T18:46:24.195Z,1.77
2023-03-20T18:48:52.584Z,2.70
2023-03-20T18:51:20.619Z,2.23
2023-03-20T18:53:47.754Z,1.60
2023-03-20T18:56:25.611Z,1.63
2023-03-20T18:58:53.437Z,1.60
2023-03-20T19:01:21.063Z,1.70
2023-03-20T19:03:48.447Z,1.60
2023-03-20T19:06:21.435Z,1.57
2023-03-20T19:08:49.353Z,1.77
2023-03-20T19:11:20.585Z,2.83
2023-03-20T19:13:51.155Z,3.13
2023-03-20T19:16:32.257Z,2.97
2023-03-20T19:19:01.554Z,3.00
2023-03-20T19:21:29.700Z,4.60
2023-03-20T19:23:58.778Z,3.70
2023-03-20T19:26:27.236Z,3.30
2023-03-20T19:28:55.930Z,2.27
2023-03-20T19:31:23.653Z,2.13
2023-03-20T19:33:51.347Z,2.30
2023-03-20T19:36:24.150Z,1.50
2023-03-20T19:38:51.929Z,1.53
2023-03-20T19:41:20.092Z,1.50
2023-03-20T19:43:52.944Z,1.80
2023-03-20T19:46:40.054Z,1.20
2023-03-20T19:49:17.905Z,2.10
2023-03-20T19:51:45.149Z,1.43
2023-03-20T19:54:11.932Z,1.67
2023-03-20T19:56:38.739Z,1.77
2023-03-20T19:59:05.894Z,2.03
2023-03-20T20:01:32.745Z,1.80
2023-03-20T20:03:59.740Z,1.90
2023-03-20T20:06:32.089Z,2.10
2023-03-20T20:09:00.850Z,2.50
2023-03-20T20:11:27.719Z,3.90
2023-03-20T20:14:13.403Z,7.60
2023-03-20T20:16:42.934Z,7.23
2023-03-20T20:19:10.208Z,6.03
2023-03-20T20:24:24.117Z,4.97
2023-03-20T20:26:59.539Z,8.70
2023-03-20T20:29:30.373Z,8.10
2023-03-20T20:31:59.014Z,7.37
2023-03-20T20:35:22.680Z,6.40
2023-03-20T20:37:51.731Z,5.67
2023-03-20T20:40:00.351Z,5.30
2023-03-20T20:42:27.181Z,4.70
2023-03-20T20:44:55.032Z,4.20
2023-03-20T20:47:21.884Z,7.93
2023-03-20T20:49:48.984Z,6.73
2023-03-20T20:52:16.133Z,8.33
2023-03-20T20:54:43.157Z,8.50
2023-03-20T20:57:14.266Z,5.67
2023-03-20T20:59:41.426Z,5.20
2023-03-20T21:02:15.576Z,5.40
2023-03-20T21:04:43.608Z,4.93
2023-03-20T21:07:12.142Z,3.50
2023-03-20T21:09:39.887Z,3.10
2023-03-20T21:12:08.203Z,3.30
2023-03-20T21:14:35.677Z,2.90
2023-03-20T21:17:03.744Z,2.60
2023-03-20T21:19:33.531Z,2.50
2023-03-20T21:22:00.479Z,2.50
2023-03-20T21:24:33.781Z,3.13
2023-03-20T21:27:06.800Z,2.70
2023-03-20T21:29:34.301Z,3.30
2023-03-20T21:32:01.131Z,3.00
2023-03-20T21:34:29.058Z,2.87
2023-03-20T21:36:57.841Z,3.10
2023-03-20T21:39:27.596Z,3.00
2023-03-20T21:41:54.498Z,2.10
2023-03-20T21:44:57.401Z,2.87
2023-03-20T21:50:42.099Z,1.90
2023-03-20T21:53:23.920Z,1.87
2023-03-20T21:59:02.911Z,1.90
2023-03-20T22:04:51.123Z,1.70
2023-03-20T22:15:33.735Z,2.27
2023-03-20T22:18:19.424Z,3.00
2023-03-20T22:27:03.405Z,2.80
2023-03-20T22:45:53.681Z,1.80
2023-03-20T22:48:30.375Z,2.13
2023-03-20T22:50:57.117Z,2.10
2023-03-20T22:53:23.888Z,3.00
2023-03-20T22:55:52.357Z,2.20
2023-03-20T22:58:19.508Z,1.73
2023-03-20T23:00:46.301Z,2.17
2023-03-20T23:03:25.602Z,2.50
2023-03-20T23:05:54.034Z,3.53
2023-03-20T23:08:21.749Z,3.57
2023-03-20T23:10:50.739Z,3.00
2023-03-20T23:13:19.471Z,2.50
2023-03-20T23:15:47.365Z,2.70
2023-03-20T23:18:14.656Z,2.10
2023-03-20T23:20:41.500Z,1.63
2023-03-20T23:23:09.065Z,2.53
2023-03-20T23:25:39.715Z,2.70
2023-03-20T23:28:09.452Z,2.07
2023-03-20T23:30:45.232Z,3.20
2023-03-20T23:33:14.993Z,2.73
2023-03-20T23:35:41.783Z,3.50
2023-03-20T23:38:08.585Z,2.70
2023-03-20T23:40:35.598Z,2.63
2023-03-20T23:43:02.518Z,2.70
2023-03-20T23:45:29.268Z,2.47
2023-03-20T23:47:56.141Z,2.30
2023-03-20T23:50:39.771Z,2.67
2023-03-20T23:53:19.798Z,2.90
2023-03-20T23:55:52.469Z,2.20
2023-03-20T23:58:21.038Z,2.80
